Time;durP1;ratioP1;P1;durP2;ratioP2;P2;SDS_P1;SDS_P2;PMS_P1;PMS_P2;Temp;Humidity;BMP_temperature;BMP_pressure;BME280_temperature;BME280_humidity;BME280_pressure;Samples;Min_cycle;Max_cycle;Signal;HPM_P1;HPM_P2
2022/05/31 00:04:34;;;;;;;5.73;5.13;;;;;9.50;100788.00;;;;10414059;28;20229;-82
2022/05/31 00:09:36;;;;;;;7.37;5.57;;;;;9.50;100790.00;;;;10430095;28;20538;-81
2022/05/31 00:14:39;;;;;;;5.87;4.77;;;;;9.50;100786.00;;;;10413584;28;20226;-81
2022/05/31 00:19:41;;;;;;;9.37;5.47;;;;;9.50;100790.00;;;;10414206;28;20324;-81
2022/05/31 00:24:43;;;;;;;9.20;5.93;;;;;9.60;100790.00;;;;10418515;28;20206;-82
2022/05/31 00:29:47;;;;;;;6.50;5.40;;;;;9.60;100795.00;;;;10443192;28;20205;-82
2022/05/31 00:34:52;;;;;;;6.70;5.60;;;;;9.60;100784.00;;;;10453792;28;20227;-80
2022/05/31 00:39:54;;;;;;;6.87;5.40;;;;;9.60;100781.00;;;;10452912;28;20202;-81
2022/05/31 00:44:56;;;;;;;7.73;5.40;;;;;9.60;100772.00;;;;10435871;28;20832;-82
2022/05/31 00:50:01;;;;;;;6.77;5.57;;;;;9.70;100782.00;;;;10449532;28;20229;-81
2022/05/31 00:55:06;;;;;;;7.50;5.43;;;;;9.70;100772.00;;;;10433448;28;20229;-79
2022/05/31 01:00:12;;;;;;;6.17;5.27;;;;;9.70;100779.00;;;;10451590;28;20198;-79
2022/05/31 01:05:15;;;;;;;7.70;5.00;;;;;9.70;100769.00;;;;10466936;28;20237;-79
2022/05/31 01:10:17;;;;;;;7.20;6.10;;;;;9.70;100762.00;;;;10451213;28;20209;-79
2022/05/31 01:15:31;;;;;;;8.57;6.53;;;;;9.70;100761.00;;;;10428616;28;20228;-79
2022/05/31 01:20:51;;;;;;;8.30;6.07;;;;;9.70;100762.00;;;;10443510;28;20225;-80
2022/05/31 01:26:23;;;;;;;8.17;6.30;;;;;9.70;100762.00;;;;10429778;28;20236;-79
2022/05/31 01:31:33;;;;;;;8.23;6.77;;;;;9.70;100754.00;;;;10442471;28;20205;-80
2022/05/31 01:36:51;;;;;;;7.80;6.50;;;;;9.70;100749.00;;;;10427778;28;20336;-80
2022/05/31 01:41:57;;;;;;;8.70;6.43;;;;;9.70;100745.00;;;;10442818;28;20201;-80
2022/05/31 01:47:01;;;;;;;7.60;5.90;;;;;9.60;100737.00;;;;10406989;28;20259;-80
2022/05/31 01:52:04;;;;;;;9.87;6.37;;;;;9.50;100740.00;;;;10441287;28;20263;-79
2022/05/31 01:57:10;;;;;;;7.47;6.40;;;;;9.50;100745.00;;;;10408601;28;20883;-80
2022/05/31 02:02:16;;;;;;;11.97;6.70;;;;;9.40;100737.00;;;;10432172;28;20201;-79
2022/05/31 02:07:21;;;;;;;10.37;7.23;;;;;9.40;100743.00;;;;10464839;28;20293;-79
2022/05/31 02:12:28;;;;;;;8.30;7.27;;;;;9.40;100744.00;;;;10448508;28;20205;-79
2022/05/31 02:18:02;;;;;;;13.23;7.33;;;;;9.40;100751.00;;;;10437421;28;20225;-80
2022/05/31 02:23:23;;;;;;;10.67;6.90;;;;;9.50;100748.00;;;;10425969;28;20194;-79
2022/05/31 02:28:25;;;;;;;12.17;7.30;;;;;9.50;100750.00;;;;10478157;28;20189;-79
2022/05/31 02:33:29;;;;;;;17.77;7.10;;;;;9.50;100746.00;;;;10465257;28;20229;-79
2022/05/31 02:38:30;;;;;;;8.87;6.90;;;;;9.50;100748.00;;;;10465060;28;20229;-79
2022/05/31 02:43:32;;;;;;;10.50;6.27;;;;;9.50;100744.00;;;;10434034;28;20862;-79
2022/05/31 02:48:35;;;;;;;7.63;6.33;;;;;9.50;100740.00;;;;10407535;28;20208;-79
2022/05/31 02:53:37;;;;;;;9.23;6.60;;;;;9.50;100744.00;;;;10406186;28;20260;-79
2022/05/31 02:58:39;;;;;;;9.93;6.40;;;;;9.50;100735.00;;;;10433147;28;20714;-79
2022/05/31 03:04:12;;;;;;;9.30;7.30;;;;;9.50;100746.00;;;;10408496;28;20260;-80
2022/05/31 03:09:33;;;;;;;8.77;7.43;;;;;9.40;100731.00;;;;10462062;28;20197;-79
2022/05/31 03:14:56;;;;;;;9.73;7.23;;;;;9.50;100733.00;;;;10446510;28;20251;-79
2022/05/31 03:20:12;;;;;;;11.37;6.50;;;;;9.40;100732.00;;;;10426794;28;20201;-79
2022/05/31 03:25:23;;;;;;;8.80;7.27;;;;;9.40;100732.00;;;;10463827;28;20433;-79
2022/05/31 03:30:25;;;;;;;10.20;7.13;;;;;9.40;100727.00;;;;10450835;28;20204;-79
2022/05/31 03:35:27;;;;;;;12.87;7.60;;;;;9.40;100727.00;;;;10470156;28;20209;-80
2022/05/31 03:45:54;;;;;;;10.50;7.93;;;;;9.40;100725.00;;;;10454189;28;20316;-79
2022/05/31 03:51:11;;;;;;;9.13;7.53;;;;;9.40;100723.00;;;;10454862;28;20205;-79
2022/05/31 03:56:14;;;;;;;8.67;7.57;;;;;9.40;100717.00;;;;10466819;28;20210;-79
2022/05/31 04:01:18;;;;;;;14.23;8.10;;;;;9.50;100729.00;;;;10429600;28;20194;-79
2022/05/31 04:06:22;;;;;;;11.10;8.23;;;;;9.60;100725.00;;;;10486078;28;20227;-79
2022/05/31 04:11:25;;;;;;;10.47;8.60;;;;;9.70;100725.00;;;;10451483;28;20221;-79
2022/05/31 04:16:33;;;;;;;8.83;7.93;;;;;9.80;100718.00;;;;10438266;28;20226;-79
2022/05/31 04:21:38;;;;;;;11.37;7.77;;;;;9.90;100715.00;;;;10467904;28;20201;-80
2022/05/31 04:26:42;;;;;;;9.53;8.50;;;;;9.90;100718.00;;;;10469571;28;20200;-79
2022/05/31 04:32:03;;;;;;;8.77;7.83;;;;;10.00;100712.00;;;;10471291;28;20201;-79
2022/05/31 04:37:21;;;;;;;8.43;7.53;;;;;10.00;100721.00;;;;10454433;28;20213;-79
2022/05/31 04:42:37;;;;;;;8.83;6.70;;;;;10.10;100719.00;;;;10426916;28;20206;-80
2022/05/31 04:47:43;;;;;;;8.67;7.33;;;;;10.20;100728.00;;;;10429236;28;20206;-80
2022/05/31 04:52:45;;;;;;;9.60;7.27;;;;;10.30;100731.00;;;;10445461;28;20201;-80
2022/05/31 04:57:47;;;;;;;11.07;6.63;;;;;10.50;100726.00;;;;10458888;28;20218;-81
2022/05/31 05:02:49;;;;;;;11.80;7.70;;;;;10.60;100719.00;;;;10433251;28;20218;-80
2022/05/31 05:07:50;;;;;;;11.10;6.70;;;;;10.80;100727.00;;;;10436905;28;20206;-80
2022/05/31 05:12:55;;;;;;;9.63;6.50;;;;;10.90;100741.00;;;;10454085;28;20540;-80
2022/05/31 05:18:21;;;;;;;9.07;7.83;;;;;11.00;100729.00;;;;10456979;28;20230;-80
2022/05/31 05:23:23;;;;;;;13.13;7.50;;;;;11.10;100737.00;;;;10427738;28;20224;-80
2022/05/31 05:34:12;;;;;;;10.23;6.73;;;;;11.50;100738.00;;;;10458253;28;20201;-79
2022/05/31 05:39:29;;;;;;;8.10;6.37;;;;;11.60;100745.00;;;;10395362;28;20247;-80
2022/05/31 05:45:12;;;;;;;8.27;6.20;;;;;11.70;100731.00;;;;10423584;28;20197;-79
2022/05/31 05:50:17;;;;;;;8.67;6.23;;;;;11.80;100732.00;;;;10423916;28;20198;-80
2022/05/31 05:55:25;;;;;;;11.03;6.90;;;;;12.00;100730.00;;;;10441289;28;20222;-80
2022/05/31 06:00:53;;;;;;;16.70;8.47;;;;;12.30;100737.00;;;;10443045;28;20193;-80
2022/05/31 06:05:59;;;;;;;8.43;6.50;;;;;12.60;100742.00;;;;10447560;28;20217;-80
2022/05/31 06:11:25;;;;;;;10.10;7.00;;;;;12.80;100736.00;;;;10448749;28;20201;-79
2022/05/31 06:16:36;;;;;;;9.03;7.23;;;;;13.10;100740.00;;;;10446589;28;20217;-80
2022/05/31 06:21:39;;;;;;;8.67;5.93;;;;;13.30;100742.00;;;;10448132;28;20357;-80
2022/05/31 06:26:54;;;;;;;10.77;6.63;;;;;13.70;100747.00;;;;10453098;28;20197;-80
2022/05/31 06:31:56;;;;;;;8.20;6.67;;;;;14.10;100751.00;;;;10428322;28;20206;-80
2022/05/31 06:37:13;;;;;;;9.20;6.67;;;;;14.50;100752.00;;;;10404836;28;20217;-79
2022/05/31 06:42:16;;;;;;;10.77;7.43;;;;;14.90;100751.00;;;;10422499;28;20201;-80
2022/05/31 06:47:37;;;;;;;9.03;6.47;;;;;16.30;100731.00;;;;10409046;28;20225;-80
2022/05/31 06:58:45;;;;;;;11.00;6.37;;;;;17.80;100748.00;;;;10425229;28;20218;-80
2022/05/31 07:03:47;;;;;;;8.90;6.00;;;;;18.50;100738.00;;;;10461302;28;20304;-80
2022/05/31 07:08:50;;;;;;;6.55;5.43;;;;;19.00;100745.00;;;;10446425;28;20201;-80
2022/05/31 07:14:02;;;;;;;10.68;5.22;;;;;19.10;100745.00;;;;10422053;28;20206;-80
2022/05/31 07:19:22;;;;;;;8.32;5.90;;;;;19.20;100749.00;;;;10425027;28;20221;-80
2022/05/31 07:24:25;;;;;;;11.27;5.38;;;;;19.60;100736.00;;;;10445575;28;20202;-80
2022/05/31 07:29:45;;;;;;;6.35;5.00;;;;;19.50;100742.00;;;;10480902;28;20215;-80
2022/05/31 07:34:49;;;;;;;7.65;5.00;;;;;19.90;100745.00;;;;10441793;28;20715;-78
2022/05/31 07:39:53;;;;;;;7.47;5.15;;;;;20.90;100742.00;;;;10404164;28;20202;-78
2022/05/31 07:44:56;;;;;;;8.32;4.60;;;;;21.90;100734.00;;;;10421034;28;20223;-78
2022/05/31 07:49:58;;;;;;;8.15;4.60;;;;;22.20;100733.00;;;;10443066;28;20255;-78
2022/05/31 07:55:28;;;;;;;9.82;4.97;;;;;22.40;100718.00;;;;10478957;28;20312;-78
2022/05/31 08:00:50;;;;;;;8.77;4.95;;;;;22.00;100722.00;;;;10422770;28;20438;-78
2022/05/31 08:05:53;;;;;;;7.30;4.18;;;;;22.20;100719.00;;;;10460894;28;20278;-77
2022/05/31 08:11:09;;;;;;;9.35;4.15;;;;;22.30;100719.00;;;;10477201;28;20205;-78
2022/05/31 08:16:13;;;;;;;6.80;4.45;;;;;23.10;100720.00;;;;10469426;28;20225;-78
2022/05/31 08:21:26;;;;;;;9.13;4.03;;;;;23.30;100721.00;;;;10446792;28;20252;-78
2022/05/31 08:26:28;;;;;;;11.10;4.40;;;;;23.50;100727.00;;;;10430539;28;20233;-78
2022/05/31 08:31:36;;;;;;;13.63;4.57;;;;;23.20;100717.00;;;;10458557;28;20660;-78
2022/05/31 08:36:39;;;;;;;10.88;4.50;;;;;24.00;100724.00;;;;10468734;28;20224;-79
2022/05/31 08:41:46;;;;;;;10.98;4.65;;;;;25.00;100709.00;;;;10467041;28;20198;-79
2022/05/31 08:47:09;;;;;;;6.32;3.85;;;;;25.30;100707.00;;;;10433925;28;20617;-79
2022/05/31 08:52:23;;;;;;;8.38;3.70;;;;;25.40;100704.00;;;;10471964;28;20232;-79
2022/05/31 08:57:36;;;;;;;13.93;4.03;;;;;25.30;100708.00;;;;10425651;28;20222;-78
2022/05/31 09:02:58;;;;;;;9.27;4.72;;;;;26.00;100706.00;;;;10453837;28;20220;-77
2022/05/31 09:08:19;;;;;;;8.52;4.15;;;;;26.20;100698.00;;;;10433361;28;20556;-78
2022/05/31 09:13:36;;;;;;;9.25;4.30;;;;;25.20;100714.00;;;;10465482;28;20204;-79
2022/05/31 09:18:50;;;;;;;5.05;3.60;;;;;22.40;100717.00;;;;10439830;28;20278;-78
2022/05/31 09:23:55;;;;;;;12.32;3.50;;;;;21.30;100712.00;;;;10406672;28;20209;-78
2022/05/31 09:29:05;;;;;;;6.57;3.50;;;;;22.20;100690.00;;;;10447758;28;20186;-78
2022/05/31 09:34:29;;;;;;;5.88;3.30;;;;;24.60;100697.00;;;;10414879;28;20202;-77
2022/05/31 09:39:40;;;;;;;3.75;2.35;;;;;23.40;100699.00;;;;10405854;28;20229;-78
2022/05/31 09:44:47;;;;;;;7.28;3.13;;;;;24.10;100705.00;;;;10404876;28;20297;-77
2022/05/31 09:49:52;;;;;;;5.57;3.03;;;;;21.80;100701.00;;;;10405420;28;20611;-77
2022/05/31 10:01:12;;;;;;;6.18;3.00;;;;;20.10;100689.00;;;;10462312;28;20201;-77
2022/05/31 10:06:23;;;;;;;7.97;2.35;;;;;24.60;100686.00;;;;10437215;28;20589;-77
2022/05/31 10:11:30;;;;;;;3.90;2.30;;;;;27.70;100677.00;;;;10420966;28;20325;-77
2022/05/31 10:16:34;;;;;;;3.25;2.25;;;;;27.20;100681.00;;;;10421035;28;20210;-77
2022/05/31 10:21:42;;;;;;;3.70;2.22;;;;;26.20;100682.00;;;;10419925;28;20673;-77
2022/05/31 10:27:12;;;;;;;4.53;2.28;;;;;27.90;100673.00;;;;10455426;28;20205;-77
2022/05/31 10:32:46;;;;;;;5.90;1.88;;;;;28.80;100678.00;;;;10459268;28;20204;-78
2022/05/31 10:37:57;;;;;;;4.35;1.50;;;;;27.90;100696.00;;;;10478094;28;20676;-79
2022/05/31 10:43:07;;;;;;;2.30;1.40;;;;;25.20;100693.00;;;;10415742;28;20687;-78
2022/05/31 10:48:10;;;;;;;3.53;1.35;;;;;26.40;100682.00;;;;10419932;28;20202;-77
2022/05/31 10:53:25;;;;;;;4.53;1.45;;;;;24.00;100694.00;;;;10402311;28;20750;-77
2022/05/31 10:58:33;;;;;;;3.85;1.20;;;;;23.80;100689.00;;;;10439101;28;20231;-77
2022/05/31 11:03:55;;;;;;;4.90;2.40;;;;;23.70;100667.00;;;;10458423;28;20734;-78
2022/05/31 11:15:01;;;;;;;2.65;0.98;;;;;30.20;100691.00;;;;10441308;28;20220;-77
2022/05/31 11:20:26;;;;;;;2.80;1.10;;;;;28.10;100703.00;;;;10460124;28;20290;-78
2022/05/31 11:25:48;;;;;;;6.20;1.52;;;;;25.70;100708.00;;;;10455415;28;20197;-80
2022/05/31 11:31:40;;;;;;;2.42;1.27;;;;;24.00;100704.00;;;;10422389;28;20254;-79
2022/05/31 11:37:11;;;;;;;1.25;0.98;;;;;23.80;100704.00;;;;10462469;28;20208;-79
2022/05/31 11:42:38;;;;;;;1.55;1.10;;;;;24.30;100706.00;;;;10441656;28;20908;-81
2022/05/31 11:47:55;;;;;;;1.60;0.93;;;;;25.00;100690.00;;;;10432610;28;20411;-78
2022/05/31 11:53:09;;;;;;;2.85;1.40;;;;;24.90;100702.00;;;;10480669;28;20275;-80
2022/05/31 11:58:47;;;;;;;2.63;1.30;;;;;25.20;100694.00;;;;10465813;28;20304;-79
2022/05/31 12:04:01;;;;;;;3.22;1.48;;;;;24.70;100695.00;;;;10398568;28;20308;-78
2022/05/31 12:09:30;;;;;;;1.42;1.08;;;;;24.30;100695.00;;;;10445983;28;20193;-79
2022/05/31 12:14:38;;;;;;;1.20;0.88;;;;;26.30;100677.00;;;;10472799;28;20248;-80
2022/05/31 12:20:00;;;;;;;1.75;1.08;;;;;25.90;100697.00;;;;10438962;28;20206;-81
2022/05/31 12:25:09;;;;;;;1.63;1.10;;;;;25.00;100685.00;;;;10465305;28;20197;-81
2022/05/31 12:30:20;;;;;;;2.10;1.00;;;;;24.80;100682.00;;;;10463303;28;20228;-81
2022/05/31 12:35:32;;;;;;;2.63;0.90;;;;;24.00;100678.00;;;;10443791;28;20263;-82
2022/05/31 12:40:33;;;;;;;1.40;1.08;;;;;24.50;100668.00;;;;10467632;28;20472;-81
2022/05/31 12:45:36;;;;;;;2.78;1.20;;;;;26.40;100656.00;;;;10449738;28;20220;-78
2022/05/31 12:50:56;;;;;;;2.28;1.20;;;;;28.00;100673.00;;;;10423168;28;20205;-80
2022/05/31 12:55:59;;;;;;;1.55;1.05;;;;;27.00;100657.00;;;;10463668;28;20273;-81
2022/05/31 13:01:06;;;;;;;3.25;1.10;;;;;27.30;100673.00;;;;10438825;28;20201;-80
2022/05/31 13:06:09;;;;;;;2.75;1.20;;;;;25.70;100675.00;;;;10446289;28;20225;-80
2022/05/31 13:22:07;;;;;;;2.45;0.82;;;;;23.20;100666.00;;;;10460237;28;20850;-80
2022/05/31 13:27:09;;;;;;;2.75;0.85;;;;;23.40;100667.00;;;;10461974;28;20198;-80
2022/05/31 13:32:11;;;;;;;5.60;1.58;;;;;24.00;100672.00;;;;10417944;28;20206;-79
2022/05/31 13:37:18;;;;;;;6.60;1.38;;;;;24.00;100670.00;;;;10467492;28;20567;-79
2022/05/31 13:42:36;;;;;;;1.73;1.10;;;;;24.00;100663.00;;;;10443437;28;20603;-79
2022/05/31 13:47:50;;;;;;;1.65;0.75;;;;;26.10;100660.00;;;;10449557;28;20190;-79
2022/05/31 13:52:52;;;;;;;1.65;0.90;;;;;26.40;100664.00;;;;10462845;28;20205;-79
2022/05/31 13:57:56;;;;;;;1.95;0.60;;;;;27.00;100651.00;;;;10443194;28;20283;-79
2022/05/31 14:03:05;;;;;;;0.80;0.70;;;;;26.50;100657.00;;;;10461721;28;20217;-79
2022/05/31 14:08:09;;;;;;;1.90;0.85;;;;;26.30;100667.00;;;;10458455;28;20205;-80
2022/05/31 14:13:21;;;;;;;1.73;0.80;;;;;31.00;100654.00;;;;10442277;28;20288;-79
2022/05/31 14:18:23;;;;;;;3.10;0.85;;;;;32.70;100658.00;;;;10466338;28;20729;-79
2022/05/31 14:23:27;;;;;;;2.72;1.10;;;;;28.30;100659.00;;;;10455435;28;20197;-80
2022/05/31 14:28:29;;;;;;;1.23;0.90;;;;;26.60;100655.00;;;;10426534;28;20687;-80
2022/05/31 14:33:34;;;;;;;1.38;0.70;;;;;26.20;100653.00;;;;10438895;28;20191;-80
2022/05/31 14:38:45;;;;;;;2.15;0.90;;;;;25.30;100652.00;;;;10452958;28;20193;-80
2022/05/31 14:43:56;;;;;;;2.92;0.98;;;;;26.40;100644.00;;;;10444366;28;20200;-79
2022/05/31 14:49:11;;;;;;;2.25;1.23;;;;;25.80;100652.00;;;;10434716;28;20224;-81
2022/05/31 14:54:35;;;;;;;3.67;1.08;;;;;24.40;100659.00;;;;10435861;28;20228;-80
2022/05/31 14:59:37;;;;;;;2.28;1.10;;;;;23.20;100663.00;;;;10466936;28;20292;-80
2022/05/31 15:04:51;;;;;;;3.28;1.02;;;;;22.20;100659.00;;;;10461753;28;20222;-79
2022/05/31 15:10:14;;;;;;;6.97;1.08;;;;;21.10;100688.00;;;;10421942;28;20214;-80
2022/05/31 15:20:41;;;;;;;1.73;0.70;;;;;26.80;100681.00;;;;10459274;28;20731;-79
2022/05/31 15:25:51;;;;;;;0.95;0.50;;;;;23.00;100694.00;;;;10437920;28;20201;-79
2022/05/31 15:30:53;;;;;;;1.70;0.68;;;;;23.50;100680.00;;;;10450543;28;20217;-79
2022/05/31 15:36:15;;;;;;;1.65;0.70;;;;;22.80;100693.00;;;;10450876;28;20654;-79
2022/05/31 15:41:25;;;;;;;2.05;1.13;;;;;22.30;100691.00;;;;10460946;28;20201;-79
2022/05/31 15:46:31;;;;;;;2.00;0.98;;;;;22.70;100685.00;;;;10449938;28;20222;-80
2022/05/31 15:51:45;;;;;;;2.35;0.90;;;;;22.30;100687.00;;;;10468704;28;20205;-80
2022/05/31 15:56:49;;;;;;;2.95;0.90;;;;;21.40;100695.00;;;;10460364;28;20210;-80
2022/05/31 16:01:51;;;;;;;2.08;0.90;;;;;21.50;100693.00;;;;10450397;28;20193;-80
2022/05/31 16:06:54;;;;;;;2.10;0.70;;;;;21.90;100702.00;;;;10458932;28;20680;-79
2022/05/31 16:11:57;;;;;;;1.23;1.13;;;;;21.90;100696.00;;;;10439049;28;20550;-79
2022/05/31 16:16:59;;;;;;;2.63;0.77;;;;;21.30;100726.00;;;;10428311;28;20193;-80
2022/05/31 16:22:02;;;;;;;10.15;1.38;;;;;19.80;100782.00;;;;10459593;28;20203;-79
2022/05/31 16:27:04;;;;;;;7.97;1.50;;;;;17.60;100816.00;;;;10443311;28;20308;-80
2022/05/31 16:32:11;;;;;;;3.15;1.48;;;;;15.40;100833.00;;;;10435717;28;20201;-81
2022/05/31 16:42:34;;;;;;;3.33;1.50;;;;;13.90;100822.00;;;;10444103;28;20193;-82
2022/05/31 16:47:37;;;;;;;4.00;1.73;;;;;13.80;100799.00;;;;10443045;28;20222;-81
2022/05/31 16:52:40;;;;;;;2.00;1.90;;;;;14.00;100776.00;;;;10406978;28;20198;-80
2022/05/31 16:57:42;;;;;;;2.43;2.10;;;;;14.40;100753.00;;;;10423132;28;20269;-80
2022/05/31 17:02:44;;;;;;;2.33;1.70;;;;;14.70;100741.00;;;;10419101;28;20221;-79
2022/05/31 17:18:27;;;;;;;4.00;1.73;;;;;15.80;100731.00;;;;10446650;28;20221;-79
2022/05/31 17:23:35;;;;;;;1.83;1.60;;;;;16.40;100731.00;;;;10425500;28;20803;-79
2022/05/31 17:28:48;;;;;;;2.10;1.47;;;;;15.70;100739.00;;;;10449109;28;20197;-79
2022/05/31 17:33:51;;;;;;;2.27;1.40;;;;;15.00;100740.00;;;;10416959;28;20198;-79
2022/05/31 17:38:53;;;;;;;2.73;1.47;;;;;14.70;100741.00;;;;10419861;28;20228;-79
2022/05/31 17:43:58;;;;;;;3.13;1.83;;;;;14.80;100738.00;;;;10448931;28;20201;-79
2022/05/31 17:49:00;;;;;;;1.63;1.40;;;;;14.80;100738.00;;;;10453853;28;20194;-79
2022/05/31 17:54:19;;;;;;;2.73;2.50;;;;;14.70;100745.00;;;;10438912;28;20537;-78
2022/05/31 17:59:21;;;;;;;2.13;1.93;;;;;14.60;100740.00;;;;10432445;28;20213;-79
2022/05/31 18:04:23;;;;;;;2.37;1.60;;;;;14.60;100748.00;;;;10448576;28;20228;-79
2022/05/31 18:09:35;;;;;;;1.63;1.53;;;;;14.60;100754.00;;;;10476079;28;20197;-79
2022/05/31 18:14:37;;;;;;;4.10;2.53;;;;;14.70;100755.00;;;;10440925;28;20198;-79
2022/05/31 18:19:39;;;;;;;1.77;1.67;;;;;14.70;100760.00;;;;10436498;28;20221;-79
2022/05/31 18:24:46;;;;;;;4.83;1.97;;;;;14.70;100764.00;;;;10457483;28;20197;-79
2022/05/31 18:29:50;;;;;;;3.30;2.70;;;;;14.60;100766.00;;;;10457718;28;20232;-79
2022/05/31 18:34:57;;;;;;;2.10;1.90;;;;;14.60;100767.00;;;;10450068;28;20247;-80
2022/05/31 18:45:06;;;;;;;4.73;2.47;;;;;15.00;100779.00;;;;10457209;28;20213;-79
2022/05/31 18:50:09;;;;;;;3.37;1.97;;;;;15.00;100773.00;;;;10453860;28;20611;-79
2022/05/31 18:55:12;;;;;;;4.10;1.63;;;;;14.90;100764.00;;;;10423062;28;20793;-80
2022/05/31 19:00:15;;;;;;;6.37;2.30;;;;;14.70;100781.00;;;;10472758;28;20791;-79
2022/05/31 19:05:27;;;;;;;5.00;2.40;;;;;14.50;100794.00;;;;10452981;28;20237;-79
2022/05/31 19:10:31;;;;;;;2.47;2.13;;;;;14.10;100792.00;;;;10448780;28;20225;-79
2022/05/31 19:15:34;;;;;;;1.83;1.73;;;;;13.80;100793.00;;;;10436240;28;20201;-80
2022/05/31 19:20:36;;;;;;;4.20;2.20;;;;;13.70;100798.00;;;;10456710;28;20316;-79
2022/05/31 19:25:38;;;;;;;4.97;1.97;;;;;13.40;100801.00;;;;10456589;28;20896;-79
2022/05/31 19:30:41;;;;;;;2.93;2.00;;;;;13.10;100818.00;;;;10455507;28;20217;-79
2022/05/31 19:35:45;;;;;;;3.77;2.67;;;;;12.90;100812.00;;;;10453203;28;20216;-79
2022/05/31 19:40:47;;;;;;;4.23;2.57;;;;;12.80;100821.00;;;;10454960;28;20240;-80
2022/05/31 19:45:50;;;;;;;2.83;2.23;;;;;12.70;100838.00;;;;10421468;28;20342;-79
2022/05/31 19:50:53;;;;;;;3.97;2.53;;;;;12.70;100837.00;;;;10455237;28;20198;-79
2022/05/31 19:55:57;;;;;;;3.07;2.73;;;;;12.70;100851.00;;;;10455255;28;20194;-79
2022/05/31 20:01:00;;;;;;;7.10;3.57;;;;;12.70;100858.00;;;;10438976;28;20222;-80
2022/05/31 20:06:03;;;;;;;4.50;3.30;;;;;12.60;100866.00;;;;10425812;28;20217;-81
2022/05/31 20:11:05;;;;;;;7.67;3.60;;;;;12.40;100881.00;;;;10414124;28;20201;-81
2022/05/31 20:16:07;;;;;;;4.83;3.43;;;;;12.20;100884.00;;;;10434276;28;20219;-81
2022/05/31 20:21:10;;;;;;;4.33;3.60;;;;;12.10;100883.00;;;;10429087;28;20217;-80
2022/05/31 20:26:18;;;;;;;3.83;3.50;;;;;12.00;100884.00;;;;10447805;28;20225;-81
2022/05/31 20:31:20;;;;;;;5.97;4.70;;;;;12.00;100893.00;;;;10431186;28;20586;-81
2022/05/31 20:36:22;;;;;;;5.80;4.93;;;;;12.00;100901.00;;;;10443484;28;20197;-80
2022/05/31 20:41:26;;;;;;;7.73;5.70;;;;;11.90;100907.00;;;;10463510;28;20214;-80
2022/05/31 20:46:29;;;;;;;6.60;5.90;;;;;11.70;100907.00;;;;10449702;28;20209;-80
2022/05/31 20:51:32;;;;;;;6.73;5.80;;;;;11.60;100913.00;;;;10446312;28;20205;-80
2022/05/31 20:56:36;;;;;;;7.57;5.67;;;;;11.30;100920.00;;;;10420900;28;20202;-80
2022/05/31 21:01:38;;;;;;;7.87;6.97;;;;;11.10;100914.00;;;;10463840;28;20218;-80
2022/05/31 21:06:40;;;;;;;8.50;6.57;;;;;10.90;100922.00;;;;10417361;28;20286;-80
2022/05/31 21:11:43;;;;;;;8.37;7.57;;;;;10.80;100920.00;;;;10446008;28;20284;-80
2022/05/31 21:16:45;;;;;;;8.00;7.20;;;;;10.60;100931.00;;;;10478813;28;20392;-80
2022/05/31 21:21:48;;;;;;;8.23;7.13;;;;;10.50;100933.00;;;;10428809;28;20217;-80
2022/05/31 21:26:50;;;;;;;8.73;7.83;;;;;10.40;100926.00;;;;10429255;28;20234;-80
2022/05/31 21:31:56;;;;;;;9.50;8.60;;;;;10.40;100928.00;;;;10428675;28;20247;-80
2022/05/31 21:37:03;;;;;;;12.50;10.10;;;;;10.30;100922.00;;;;10450186;28;20711;-81
2022/05/31 21:42:05;;;;;;;11.63;10.37;;;;;10.20;100926.00;;;;10429518;28;20202;-80
2022/05/31 21:47:07;;;;;;;12.00;9.83;;;;;10.20;100917.00;;;;10428547;28;20637;-81
2022/05/31 21:52:10;;;;;;;14.20;9.07;;;;;10.10;100907.00;;;;10426874;28;20215;-82
2022/05/31 21:57:12;;;;;;;13.67;11.30;;;;;10.00;100915.00;;;;10422338;28;20267;-81
2022/05/31 22:02:19;;;;;;;14.57;12.40;;;;;9.90;100913.00;;;;10456486;28;20247;-82
2022/05/31 22:07:22;;;;;;;16.40;12.77;;;;;9.80;100912.00;;;;10436513;28;20616;-80
2022/05/31 22:12:24;;;;;;;16.87;13.33;;;;;9.80;100911.00;;;;10403723;28;20778;-81
2022/05/31 22:17:29;;;;;;;15.40;12.57;;;;;9.70;100909.00;;;;10419755;28;20663;-81
2022/05/31 22:22:32;;;;;;;14.03;12.40;;;;;9.70;100909.00;;;;10403231;28;20210;-80
2022/05/31 22:27:35;;;;;;;13.93;11.47;;;;;9.60;100905.00;;;;10405616;28;20201;-81
2022/05/31 22:32:37;;;;;;;13.73;11.13;;;;;9.60;100904.00;;;;10425747;28;20194;-81
2022/05/31 22:37:42;;;;;;;15.23;12.80;;;;;9.50;100907.00;;;;10432382;28;20437;-80
2022/05/31 22:42:47;;;;;;;14.63;12.83;;;;;9.50;100910.00;;;;10389364;28;20572;-81
2022/05/31 22:47:50;;;;;;;17.50;13.17;;;;;9.50;100904.00;;;;10425491;28;20259;-81
2022/05/31 22:52:52;;;;;;;15.67;13.20;;;;;9.50;100906.00;;;;10405868;28;20293;-82
2022/05/31 22:57:57;;;;;;;13.60;12.17;;;;;9.50;100898.00;;;;10416665;28;20228;-81
2022/05/31 23:03:01;;;;;;;14.77;13.27;;;;;9.50;100908.00;;;;10416837;28;20222;-82
2022/05/31 23:08:04;;;;;;;15.00;12.90;;;;;9.50;100910.00;;;;10420637;28;20197;-81
2022/05/31 23:13:06;;;;;;;15.23;11.27;;;;;9.50;100914.00;;;;10404872;28;20202;-81
2022/05/31 23:18:09;;;;;;;11.50;10.30;;;;;9.40;100910.00;;;;10417380;28;20222;-80
2022/05/31 23:28:32;;;;;;;16.37;11.53;;;;;9.20;100915.00;;;;10414007;28;20205;-81
2022/05/31 23:33:50;;;;;;;13.87;10.60;;;;;9.20;100917.00;;;;10433999;28;20608;-80
2022/05/31 23:38:53;;;;;;;14.03;10.57;;;;;9.10;100908.00;;;;10427428;28;20224;-80
2022/05/31 23:43:55;;;;;;;13.23;10.03;;;;;9.10;100914.00;;;;10422154;28;20256;-81
2022/05/31 23:48:57;;;;;;;15.10;10.53;;;;;9.10;100924.00;;;;10409681;28;20216;-80
2022/05/31 23:53:59;;;;;;;11.20;9.97;;;;;9.10;100925.00;;;;10431994;28;20238;-81
2022/05/31 23:59:01;;;;;;;15.57;10.90;;;;;9.10;100930.00;;;;10452385;28;20221;-81
